createdAt,value
2022-07-28T00:01:09.789Z,1.40
2022-07-28T00:03:10.917Z,1.60
2022-07-28T00:05:12.096Z,1.90
2022-07-28T00:07:13.067Z,3.40
2022-07-28T00:09:14.055Z,3.50
2022-07-28T00:11:15.702Z,4.10
2022-07-28T00:13:16.731Z,6.80
2022-07-28T00:15:17.730Z,5.90
2022-07-28T00:17:18.745Z,6.10
2022-07-28T00:19:19.904Z,5.10
2022-07-28T00:21:20.864Z,4.30
2022-07-28T00:23:21.857Z,4.00
2022-07-28T00:25:23.276Z,3.10
2022-07-28T00:27:24.338Z,2.60
2022-07-28T00:29:26.187Z,2.00
2022-07-28T00:31:47.428Z,2.40
2022-07-28T00:33:48.684Z,2.00
2022-07-28T00:35:49.684Z,2.10
2022-07-28T00:37:50.654Z,2.20
2022-07-28T00:39:52.725Z,2.00
2022-07-28T00:41:53.859Z,1.80
2022-07-28T00:43:54.851Z,1.40
2022-07-28T00:45:55.854Z,2.30
2022-07-28T00:47:56.853Z,1.60
2022-07-28T00:49:57.919Z,1.90
2022-07-28T00:51:59.715Z,1.20
2022-07-28T00:54:00.786Z,1.70
2022-07-28T00:56:06.299Z,1.90
2022-07-28T00:58:07.916Z,3.20
2022-07-28T01:00:13.120Z,5.70
2022-07-28T01:02:14.248Z,8.90
2022-07-28T01:04:16.093Z,8.20
2022-07-28T01:06:24.015Z,6.50
2022-07-28T01:08:37.174Z,6.30
2022-07-28T01:10:50.530Z,6.70
2022-07-28T01:13:43.927Z,6.20
2022-07-28T01:15:53.948Z,6.20
2022-07-28T01:18:03.491Z,7.30
2022-07-28T01:20:18.433Z,7.80
2022-07-28T01:22:25.474Z,8.10
2022-07-28T01:25:24.671Z,6.70
2022-07-28T01:27:51.298Z,4.20
2022-07-28T01:30:34.614Z,2.40
2022-07-28T01:32:42.079Z,2.10
2022-07-28T01:34:52.562Z,1.80
2022-07-28T01:37:05.282Z,1.70
2022-07-28T01:39:06.991Z,1.80
2022-07-28T01:41:11.882Z,2.80
2022-07-28T01:43:18.494Z,3.40
2022-07-28T01:45:20.898Z,4.50
2022-07-28T01:47:24.095Z,5.30
2022-07-28T01:49:26.775Z,5.50
2022-07-28T01:51:31.185Z,5.70
2022-07-28T01:53:38.204Z,4.50
2022-07-28T01:55:42.948Z,3.20
2022-07-28T01:57:44.885Z,3.70
2022-07-28T01:59:47.419Z,3.70
2022-07-28T02:01:51.117Z,3.90
2022-07-28T02:03:54.809Z,3.60
2022-07-28T02:05:57.187Z,3.50
2022-07-28T02:08:00.861Z,3.50
2022-07-28T02:10:04.381Z,3.10
2022-07-28T02:12:07.918Z,2.60
2022-07-28T02:14:14.034Z,2.20
2022-07-28T02:16:18.051Z,1.80
2022-07-28T02:18:19.787Z,2.50
2022-07-28T02:20:23.483Z,1.60
2022-07-28T02:22:27.324Z,2.20
2022-07-28T02:24:32.284Z,1.80
2022-07-28T02:26:42.196Z,1.40
2022-07-28T02:28:46.709Z,1.40
2022-07-28T02:30:56.607Z,1.20
2022-07-28T02:33:05.747Z,1.40
2022-07-28T02:35:23.657Z,1.60
2022-07-28T02:37:26.278Z,1.70
2022-07-28T02:40:00.273Z,1.20
2022-07-28T02:42:05.905Z,1.10
2022-07-28T02:44:15.278Z,1.30
2022-07-28T02:46:20.563Z,1.30
2022-07-28T02:48:26.079Z,1.40
2022-07-28T02:50:29.992Z,1.40
2022-07-28T02:52:33.070Z,1.30
2022-07-28T02:54:35.419Z,1.30
2022-07-28T02:56:37.683Z,1.60
2022-07-28T02:58:39.695Z,1.20
2022-07-28T03:02:47.018Z,1.60
2022-07-28T03:05:18.879Z,1.30
2022-07-28T03:07:20.722Z,1.40
2022-07-28T03:09:22.641Z,1.30
2022-07-28T03:11:24.773Z,1.30
2022-07-28T03:13:26.454Z,1.00
2022-07-28T03:15:28.176Z,1.10
2022-07-28T03:17:29.888Z,1.20
2022-07-28T03:19:32.476Z,1.20
2022-07-28T03:21:34.172Z,1.30
2022-07-28T03:23:43.896Z,1.20
2022-07-28T03:25:48.890Z,2.20
2022-07-28T03:27:51.279Z,1.10
2022-07-28T03:30:03.396Z,1.20
2022-07-28T03:32:06.878Z,1.80
2022-07-28T03:34:11.880Z,1.00
2022-07-28T03:36:16.072Z,1.30
2022-07-28T03:38:26.553Z,1.20
2022-07-28T03:40:30.004Z,1.40
2022-07-28T03:42:33.340Z,1.40
2022-07-28T03:44:35.043Z,1.80
2022-07-28T03:46:42.803Z,1.00
2022-07-28T03:48:44.909Z,1.20
2022-07-28T03:52:48.218Z,1.30
2022-07-28T03:54:49.879Z,1.20
2022-07-28T03:56:51.556Z,1.50
2022-07-28T03:58:53.339Z,1.50
2022-07-28T04:00:55.206Z,1.20
2022-07-28T04:02:56.978Z,1.40
2022-07-28T04:04:59.611Z,1.20
2022-07-28T04:07:01.315Z,1.40
2022-07-28T04:09:03.268Z,1.20
2022-07-28T04:11:05.009Z,1.20
2022-07-28T04:13:07.902Z,1.20
2022-07-28T04:18:25.889Z,1.50
2022-07-28T04:20:28.243Z,1.10
2022-07-28T04:22:29.877Z,1.30
2022-07-28T04:24:31.653Z,1.20
2022-07-28T04:26:33.309Z,1.60
2022-07-28T04:28:34.943Z,1.20
2022-07-28T04:30:36.702Z,1.50
2022-07-28T04:32:47.247Z,1.60
2022-07-28T04:34:49.632Z,1.30
2022-07-28T04:36:52.206Z,1.20
2022-07-28T04:38:54.255Z,1.40
2022-07-28T04:42:57.564Z,1.30
2022-07-28T04:44:59.568Z,1.40
2022-07-28T04:47:01.216Z,1.10
2022-07-28T04:49:08.343Z,1.30
2022-07-28T04:53:12.427Z,1.60
2022-07-28T04:55:14.107Z,1.40
2022-07-28T04:57:16.118Z,1.40
2022-07-28T04:59:19.016Z,1.30
2022-07-28T05:01:23.922Z,1.30
2022-07-28T05:03:25.907Z,1.60
2022-07-28T05:05:27.647Z,1.50
2022-07-28T05:07:29.377Z,1.40
2022-07-28T05:09:32.100Z,1.30
2022-07-28T05:11:33.812Z,1.50
2022-07-28T05:13:35.783Z,1.40
2022-07-28T05:15:37.456Z,1.40
2022-07-28T05:17:39.152Z,1.40
2022-07-28T05:19:40.845Z,1.60
2022-07-28T05:21:42.599Z,2.50
2022-07-28T05:23:47.452Z,1.60
2022-07-28T05:25:49.559Z,1.20
2022-07-28T05:27:52.411Z,1.70
2022-07-28T05:29:54.070Z,1.60
2022-07-28T05:31:55.856Z,1.60
2022-07-28T05:33:57.755Z,1.60
2022-07-28T05:35:59.580Z,1.50
2022-07-28T05:38:59.276Z,1.50
2022-07-28T05:41:07.349Z,1.50
2022-07-28T05:43:09.234Z,1.80
2022-07-28T05:45:15.864Z,1.50
2022-07-28T05:47:18.378Z,1.30
2022-07-28T05:49:22.013Z,1.40
2022-07-28T05:51:23.803Z,1.50
2022-07-28T05:53:25.567Z,1.80
2022-07-28T05:55:29.084Z,2.00
2022-07-28T05:57:30.767Z,1.80
2022-07-28T05:59:32.447Z,1.90
2022-07-28T06:01:38.046Z,2.00
2022-07-28T06:03:42.603Z,2.00
2022-07-28T06:06:00.504Z,2.30
2022-07-28T06:08:06.421Z,2.60
2022-07-28T06:10:09.420Z,2.40
2022-07-28T06:12:11.503Z,2.40
2022-07-28T06:14:17.458Z,2.50
2022-07-28T06:16:21.009Z,2.90
2022-07-28T06:18:22.787Z,2.70
2022-07-28T06:20:25.550Z,2.90
2022-07-28T06:22:27.213Z,2.60
2022-07-28T06:24:29.574Z,3.30
2022-07-28T06:26:31.223Z,2.60
2022-07-28T06:28:33.107Z,2.70
2022-07-28T06:30:34.840Z,2.70
2022-07-28T06:32:36.491Z,2.90
2022-07-28T06:34:38.218Z,2.60
2022-07-28T06:36:39.863Z,2.60
2022-07-28T06:38:41.515Z,2.50
2022-07-28T06:40:43.474Z,3.00
2022-07-28T06:42:46.200Z,2.50
2022-07-28T06:44:58.537Z,3.00
2022-07-28T06:47:01.372Z,2.60
2022-07-28T06:49:04.779Z,2.50
2022-07-28T06:51:06.791Z,2.40
2022-07-28T06:53:08.891Z,2.40
2022-07-28T06:55:18.318Z,2.40
2022-07-28T06:57:23.595Z,2.10
2022-07-28T06:59:35.409Z,2.80
2022-07-28T07:01:37.126Z,2.40
2022-07-28T07:03:38.936Z,2.30
2022-07-28T07:05:40.614Z,2.30
2022-07-28T07:07:43.810Z,2.80
2022-07-28T07:09:45.622Z,1.80
2022-07-28T07:11:47.742Z,1.90
2022-07-28T07:13:49.460Z,1.70
2022-07-28T07:15:51.255Z,1.50
2022-07-28T07:17:54.233Z,1.40
2022-07-28T07:19:56.028Z,1.60
2022-07-28T07:21:57.673Z,1.60
2022-07-28T07:23:59.487Z,2.10
2022-07-28T07:26:01.842Z,2.00
2022-07-28T07:28:03.662Z,1.60
2022-07-28T07:30:06.738Z,1.60
2022-07-28T07:32:10.797Z,1.70
2022-07-28T07:34:12.981Z,1.60
2022-07-28T07:36:15.136Z,1.80
2022-07-28T07:38:16.891Z,1.60
2022-07-28T07:40:19.412Z,1.90
2022-07-28T07:42:21.086Z,1.70
2022-07-28T07:44:26.445Z,1.90
2022-07-28T07:46:29.144Z,1.90
2022-07-28T07:48:30.866Z,1.80
2022-07-28T07:50:32.763Z,1.70
2022-07-28T07:54:35.976Z,2.10
2022-07-28T07:56:37.668Z,1.60
2022-07-28T07:58:39.356Z,2.10
2022-07-28T08:00:41.115Z,1.70
2022-07-28T08:02:42.819Z,1.80
2022-07-28T08:04:44.581Z,1.90
2022-07-28T08:06:46.512Z,1.90
2022-07-28T08:08:48.786Z,1.40
2022-07-28T08:14:55.121Z,1.70
2022-07-28T08:16:59.135Z,1.60
2022-07-28T08:19:00.814Z,1.90
2022-07-28T08:21:02.505Z,1.70
2022-07-28T08:23:04.190Z,1.70
2022-07-28T08:25:06.538Z,1.60
2022-07-28T08:27:08.817Z,2.00
2022-07-28T08:29:10.526Z,2.00
2022-07-28T08:31:12.338Z,1.70
2022-07-28T08:35:32.400Z,2.00
2022-07-28T08:37:35.915Z,1.90
2022-07-28T08:39:37.623Z,2.10
2022-07-28T08:41:44.782Z,2.30
2022-07-28T08:43:47.841Z,2.10
2022-07-28T08:46:01.062Z,1.90
2022-07-28T08:48:09.050Z,2.10
2022-07-28T08:50:13.785Z,1.70
2022-07-28T08:52:15.707Z,1.80
2022-07-28T08:56:20.569Z,1.90
2022-07-28T08:58:22.427Z,1.90
2022-07-28T09:02:27.097Z,1.60
2022-07-28T09:04:28.990Z,1.50
2022-07-28T09:06:31.448Z,1.80
2022-07-28T09:08:33.418Z,1.80
2022-07-28T09:10:35.140Z,1.80
2022-07-28T09:12:37.385Z,1.80
2022-07-28T09:14:39.117Z,2.10
2022-07-28T09:16:43.200Z,1.90
2022-07-28T09:18:45.054Z,2.00
2022-07-28T09:22:58.680Z,2.30
2022-07-28T09:27:08.981Z,2.20
2022-07-28T09:29:10.722Z,2.00
2022-07-28T09:33:41.290Z,2.50
2022-07-28T09:35:51.208Z,1.80
2022-07-28T09:37:59.797Z,1.80
2022-07-28T09:40:10.715Z,1.70
2022-07-28T09:42:12.848Z,1.90
2022-07-28T09:44:19.688Z,2.20
2022-07-28T09:46:24.485Z,2.10
2022-07-28T09:48:26.427Z,1.90
2022-07-28T09:50:30.254Z,1.60
2022-07-28T09:52:38.672Z,1.90
2022-07-28T09:54:59.770Z,1.90
2022-07-28T09:57:01.702Z,1.80
2022-07-28T09:59:03.992Z,1.50
2022-07-28T10:01:13.804Z,1.70
2022-07-28T10:03:25.990Z,1.90
2022-07-28T10:05:41.180Z,1.60
2022-07-28T10:07:50.329Z,2.00
2022-07-28T10:10:00.751Z,1.60
2022-07-28T10:12:14.386Z,1.60
2022-07-28T10:14:18.794Z,1.70
2022-07-28T10:16:21.450Z,1.80
2022-07-28T10:18:23.193Z,1.60
2022-07-28T10:22:29.618Z,2.00
2022-07-28T10:24:32.038Z,1.70
2022-07-28T10:26:43.996Z,1.70
2022-07-28T10:28:49.145Z,1.70
2022-07-28T10:30:53.773Z,1.70
2022-07-28T10:32:57.616Z,1.80
2022-07-28T10:35:10.357Z,1.50
2022-07-28T10:37:19.014Z,1.70
2022-07-28T10:39:24.339Z,1.90
2022-07-28T10:41:30.030Z,1.80
2022-07-28T10:43:32.301Z,1.70
2022-07-28T10:46:02.940Z,1.80
2022-07-28T10:47:57.460Z,1.50
2022-07-28T10:49:59.426Z,1.50
2022-07-28T10:52:02.509Z,1.70
2022-07-28T10:54:24.909Z,1.90
2022-07-28T10:56:45.749Z,1.50
2022-07-28T10:58:55.024Z,2.10
2022-07-28T11:01:04.701Z,1.90
2022-07-28T11:03:13.963Z,1.70
2022-07-28T11:05:39.206Z,1.40
2022-07-28T11:07:41.092Z,1.40
2022-07-28T11:09:43.420Z,1.50
2022-07-28T11:11:57.854Z,1.70
2022-07-28T11:14:22.651Z,1.70
2022-07-28T11:16:26.933Z,1.30
2022-07-28T11:18:30.670Z,1.90
2022-07-28T11:20:51.226Z,1.40
2022-07-28T11:22:53.089Z,1.40
2022-07-28T11:24:58.397Z,1.70
2022-07-28T11:27:04.006Z,1.60
2022-07-28T11:29:12.289Z,1.20
2022-07-28T11:31:14.025Z,1.50
2022-07-28T11:33:17.118Z,1.40
2022-07-28T11:35:23.841Z,1.40
2022-07-28T11:37:25.491Z,1.70
2022-07-28T11:39:29.642Z,1.50
2022-07-28T11:41:32.256Z,1.70
2022-07-28T11:43:38.703Z,1.70
2022-07-28T11:45:47.323Z,1.70
2022-07-28T11:48:16.622Z,1.60
2022-07-28T11:50:18.923Z,1.60
2022-07-28T11:52:21.183Z,1.40
2022-07-28T11:54:23.181Z,1.50
2022-07-28T11:56:29.360Z,1.40
2022-07-28T11:58:31.221Z,1.30
2022-07-28T12:00:33.007Z,1.80
2022-07-28T12:02:35.480Z,1.70
2022-07-28T12:04:37.419Z,1.50
2022-07-28T12:06:40.469Z,1.80
2022-07-28T12:09:02.903Z,1.70
2022-07-28T12:11:05.285Z,1.60
2022-07-28T12:13:07.784Z,1.60
2022-07-28T12:15:15.963Z,1.40
2022-07-28T12:17:17.684Z,1.50
2022-07-28T12:19:20.319Z,1.60
2022-07-28T12:21:46.327Z,1.90
2022-07-28T12:23:50.024Z,1.90
2022-07-28T12:25:51.754Z,1.90
2022-07-28T12:27:54.662Z,1.60
2022-07-28T12:30:02.121Z,1.90
2022-07-28T12:32:05.889Z,1.70
2022-07-28T12:34:09.799Z,1.80
2022-07-28T12:36:11.842Z,1.90
2022-07-28T12:38:13.681Z,1.90
2022-07-28T12:40:17.225Z,1.50
2022-07-28T12:42:31.249Z,1.50
2022-07-28T12:44:37.890Z,1.50
2022-07-28T12:46:44.660Z,1.70
2022-07-28T12:48:48.036Z,1.70
2022-07-28T12:50:50.254Z,1.50
2022-07-28T12:53:03.793Z,1.70
2022-07-28T12:55:24.147Z,1.50
2022-07-28T12:57:51.460Z,1.70
2022-07-28T13:00:05.968Z,1.70
2022-07-28T13:02:08.901Z,1.80
2022-07-28T13:04:11.319Z,1.70
2022-07-28T13:06:16.250Z,1.50
2022-07-28T13:08:18.955Z,1.50
2022-07-28T13:10:22.540Z,1.60
2022-07-28T13:12:26.553Z,1.70
2022-07-28T13:14:46.034Z,1.70
2022-07-28T13:16:57.619Z,1.50
2022-07-28T13:19:05.645Z,1.80
2022-07-28T13:21:08.060Z,1.80
2022-07-28T13:23:09.739Z,1.80
2022-07-28T13:25:11.754Z,1.70
2022-07-28T13:27:13.414Z,1.80
2022-07-28T13:29:15.207Z,1.80
2022-07-28T13:31:17.008Z,1.70
2022-07-28T13:33:28.552Z,1.60
2022-07-28T13:35:30.344Z,1.50
2022-07-28T13:37:32.027Z,1.70
2022-07-28T13:39:34.054Z,1.70
2022-07-28T13:41:57.827Z,1.50
2022-07-28T13:43:59.082Z,1.60
2022-07-28T13:46:00.786Z,1.50
2022-07-28T13:48:03.786Z,1.40
2022-07-28T13:50:09.838Z,1.40
2022-07-28T13:52:32.969Z,1.10
2022-07-28T13:54:37.118Z,1.40
2022-07-28T13:56:57.911Z,1.60
2022-07-28T13:59:00.712Z,1.40
2022-07-28T14:01:04.483Z,1.80
2022-07-28T14:03:08.248Z,1.60
2022-07-28T14:05:45.598Z,1.20
2022-07-28T14:07:49.464Z,1.60
2022-07-28T14:09:51.463Z,1.60
2022-07-28T14:11:54.123Z,1.50
2022-07-28T14:13:58.813Z,1.70
2022-07-28T14:16:02.206Z,1.60
2022-07-28T14:18:08.765Z,1.60
2022-07-28T14:23:57.859Z,1.50
2022-07-28T14:26:25.089Z,1.40
2022-07-28T14:28:24.180Z,1.70
2022-07-28T14:30:29.534Z,1.60
2022-07-28T14:32:34.372Z,1.50
2022-07-28T14:34:36.144Z,1.40
2022-07-28T14:36:38.379Z,1.80
2022-07-28T14:39:28.447Z,1.30
2022-07-28T14:41:30.226Z,1.40
2022-07-28T14:43:32.009Z,1.60
2022-07-28T14:45:51.392Z,1.40
2022-07-28T14:47:57.119Z,1.40
2022-07-28T14:49:58.824Z,1.30
2022-07-28T14:52:00.598Z,1.50
2022-07-28T14:54:04.776Z,1.50
2022-07-28T14:56:13.241Z,1.50
2022-07-28T14:58:14.919Z,1.70
2022-07-28T15:00:17.241Z,1.30
2022-07-28T15:02:19.101Z,1.60
2022-07-28T15:04:31.400Z,1.70
2022-07-28T15:06:33.091Z,1.70
2022-07-28T15:08:37.567Z,1.50
2022-07-28T15:10:39.327Z,1.70
2022-07-28T15:12:41.337Z,1.50
2022-07-28T15:14:43.158Z,1.40
2022-07-28T15:16:45.152Z,1.20
2022-07-28T15:18:46.943Z,1.40
2022-07-28T15:20:58.752Z,1.60
2022-07-28T15:23:00.573Z,1.40
2022-07-28T15:25:04.094Z,1.10
2022-07-28T15:27:05.769Z,1.30
2022-07-28T15:29:08.312Z,1.50
2022-07-28T15:31:53.708Z,1.30
2022-07-28T15:33:57.989Z,1.40
2022-07-28T15:36:00.726Z,1.60
2022-07-28T15:38:02.504Z,1.20
2022-07-28T15:40:04.879Z,1.40
2022-07-28T15:42:06.588Z,1.40
2022-07-28T15:44:08.512Z,1.70
2022-07-28T15:46:12.935Z,1.20
2022-07-28T15:48:14.819Z,1.40
2022-07-28T15:50:16.880Z,1.40
2022-07-28T15:52:18.674Z,1.80
2022-07-28T15:54:20.343Z,2.10
2022-07-28T15:56:26.460Z,1.30
2022-07-28T15:58:29.145Z,1.60
2022-07-28T16:00:30.873Z,1.50
2022-07-28T16:02:32.725Z,1.50
2022-07-28T16:04:34.489Z,1.60
2022-07-28T16:07:08.553Z,1.50
2022-07-28T16:09:10.213Z,1.70
2022-07-28T16:11:12.357Z,1.30
2022-07-28T16:13:47.062Z,1.50
2022-07-28T16:15:50.057Z,1.50
2022-07-28T16:17:51.976Z,1.50
2022-07-28T16:19:54.069Z,1.60
2022-07-28T16:21:55.860Z,1.70
2022-07-28T16:23:57.532Z,1.60
2022-07-28T16:25:59.317Z,1.70
2022-07-28T16:28:04.122Z,1.60
2022-07-28T16:30:06.271Z,1.50
2022-07-28T16:32:08.013Z,2.00
2022-07-28T16:34:12.847Z,1.60
2022-07-28T16:36:14.855Z,1.70
2022-07-28T16:38:16.579Z,1.70
2022-07-28T16:40:18.248Z,1.70
2022-07-28T16:42:19.913Z,1.80
2022-07-28T16:44:21.567Z,1.70
2022-07-28T16:46:24.281Z,1.50
2022-07-28T16:48:26.026Z,1.70
2022-07-28T16:50:27.807Z,1.80
2022-07-28T16:52:29.513Z,1.50
2022-07-28T16:54:31.662Z,1.60
2022-07-28T16:56:33.387Z,1.70
2022-07-28T16:58:35.934Z,1.50
2022-07-28T17:00:37.581Z,1.70
2022-07-28T17:02:39.418Z,1.80
2022-07-28T17:04:41.166Z,1.90
2022-07-28T17:06:42.900Z,1.90
2022-07-28T17:08:47.647Z,2.00
2022-07-28T17:10:49.337Z,1.90
2022-07-28T17:12:50.991Z,1.60
2022-07-28T17:14:52.626Z,1.60
2022-07-28T17:16:55.558Z,2.20
2022-07-28T17:18:57.751Z,1.80
2022-07-28T17:20:59.406Z,1.90
2022-07-28T17:23:02.051Z,1.70
2022-07-28T17:25:06.945Z,2.00
2022-07-28T17:29:41.455Z,1.90
2022-07-28T17:31:43.500Z,2.10
2022-07-28T17:33:45.284Z,2.30
2022-07-28T17:35:47.055Z,2.10
2022-07-28T17:37:48.786Z,1.70
2022-07-28T17:39:50.451Z,1.80
2022-07-28T17:41:52.237Z,2.00
2022-07-28T17:43:53.879Z,2.00
2022-07-28T17:45:55.648Z,2.00
2022-07-28T17:47:57.509Z,1.80
2022-07-28T17:49:59.262Z,1.90
2022-07-28T17:52:01.564Z,1.90
2022-07-28T17:54:03.382Z,2.00
2022-07-28T17:57:01.496Z,1.90
2022-07-28T17:59:04.860Z,2.00
2022-07-28T18:01:11.936Z,2.00
2022-07-28T18:03:14.410Z,1.70
2022-07-28T18:05:17.359Z,1.70
2022-07-28T18:07:19.026Z,1.90
2022-07-28T18:09:20.660Z,1.70
2022-07-28T18:11:58.897Z,1.80
2022-07-28T18:14:04.585Z,1.80
2022-07-28T18:16:06.999Z,1.90
2022-07-28T18:18:09.533Z,2.00
2022-07-28T18:20:11.623Z,1.90
2022-07-28T18:22:13.272Z,1.60
2022-07-28T18:24:15.199Z,1.90
2022-07-28T18:26:16.993Z,1.80
2022-07-28T18:28:19.446Z,1.80
2022-07-28T18:30:22.108Z,1.80
2022-07-28T18:32:23.791Z,1.70
2022-07-28T18:34:25.723Z,2.00
2022-07-28T18:36:27.435Z,2.00
2022-07-28T18:38:29.142Z,1.80
2022-07-28T18:40:31.435Z,2.20
2022-07-28T18:42:33.397Z,2.10
2022-07-28T18:44:35.064Z,1.90
2022-07-28T18:48:38.515Z,2.10
2022-07-28T18:50:40.909Z,2.00
2022-07-28T18:52:44.280Z,2.10
2022-07-28T18:54:46.012Z,2.20
2022-07-28T18:58:52.029Z,2.10
2022-07-28T19:00:54.700Z,2.00
2022-07-28T19:02:56.487Z,2.20
2022-07-28T19:06:59.804Z,2.50
2022-07-28T19:11:03.135Z,2.20
2022-07-28T19:13:05.297Z,2.10
2022-07-28T19:15:11.024Z,2.40
2022-07-28T19:17:12.685Z,2.20
2022-07-28T19:19:15.885Z,2.30
2022-07-28T19:21:17.690Z,2.30
2022-07-28T19:25:22.385Z,2.10
2022-07-28T19:27:24.670Z,2.70
2022-07-28T19:29:33.095Z,2.60
2022-07-28T19:31:36.028Z,2.30
2022-07-28T19:33:38.525Z,2.20
2022-07-28T19:35:45.873Z,2.30
2022-07-28T19:37:47.543Z,2.30
2022-07-28T19:39:49.291Z,2.60
2022-07-28T19:41:50.975Z,2.50
2022-07-28T19:43:52.655Z,2.60
2022-07-28T19:46:00.148Z,3.30
2022-07-28T19:48:03.662Z,2.40
2022-07-28T19:50:05.727Z,2.90
2022-07-28T19:52:08.699Z,2.50
2022-07-28T19:54:12.613Z,2.60
2022-07-28T19:56:17.539Z,2.50
2022-07-28T19:58:20.048Z,2.30
2022-07-28T20:00:22.935Z,2.00
2022-07-28T20:02:25.252Z,2.10
2022-07-28T20:04:26.986Z,2.30
2022-07-28T20:06:28.726Z,2.00
2022-07-28T20:08:30.418Z,2.30
2022-07-28T20:10:32.249Z,1.90
2022-07-28T20:12:36.917Z,2.00
2022-07-28T20:14:38.864Z,2.20
2022-07-28T20:16:40.793Z,2.10
2022-07-28T20:20:47.277Z,2.20
2022-07-28T20:22:49.009Z,2.00
2022-07-28T20:24:51.174Z,2.30
2022-07-28T20:26:53.052Z,2.10
2022-07-28T20:28:55.552Z,1.90
2022-07-28T20:30:57.400Z,1.80
2022-07-28T20:32:59.790Z,2.10
2022-07-28T20:35:04.133Z,2.20
2022-07-28T20:37:06.147Z,1.80
2022-07-28T20:39:34.302Z,1.80
2022-07-28T20:41:29.808Z,2.20
2022-07-28T20:43:31.465Z,1.90
2022-07-28T20:45:38.652Z,2.20
2022-07-28T20:47:41.038Z,1.80
2022-07-28T20:49:43.474Z,2.10
2022-07-28T20:51:51.005Z,2.20
2022-07-28T20:53:53.181Z,1.80
2022-07-28T20:55:58.903Z,2.00
2022-07-28T20:58:00.585Z,1.90
2022-07-28T21:00:03.414Z,2.10
2022-07-28T21:02:05.237Z,1.90
2022-07-28T21:04:11.331Z,2.30
2022-07-28T21:06:13.277Z,2.00
2022-07-28T21:08:17.210Z,2.40
2022-07-28T21:10:20.315Z,2.10
2022-07-28T21:12:22.159Z,2.30
2022-07-28T21:14:24.026Z,2.00
2022-07-28T21:16:25.845Z,2.30
2022-07-28T21:18:27.731Z,2.00
2022-07-28T21:20:29.422Z,2.20
2022-07-28T21:22:31.246Z,2.10
2022-07-28T21:24:32.891Z,2.70
2022-07-28T21:26:34.543Z,2.50
2022-07-28T21:28:55.129Z,2.20
2022-07-28T21:30:56.791Z,2.70
2022-07-28T21:32:58.718Z,2.60
2022-07-28T21:35:00.445Z,2.80
2022-07-28T21:37:03.991Z,2.70
2022-07-28T21:39:06.355Z,2.30
2022-07-28T21:41:08.118Z,2.60
2022-07-28T21:43:09.770Z,2.60
2022-07-28T21:45:11.679Z,2.50
2022-07-28T21:47:13.368Z,2.30
2022-07-28T21:49:15.088Z,2.20
2022-07-28T21:51:19.085Z,2.40
2022-07-28T21:53:23.220Z,2.50
2022-07-28T21:55:24.890Z,2.40
2022-07-28T21:57:26.670Z,2.30
2022-07-28T21:59:28.831Z,2.60
2022-07-28T22:05:23.808Z,2.60
2022-07-28T22:07:26.036Z,2.70
2022-07-28T22:11:29.786Z,2.50
2022-07-28T22:13:31.984Z,3.10
2022-07-28T22:15:34.283Z,2.60
2022-07-28T22:17:36.497Z,2.40
2022-07-28T22:19:38.752Z,2.80
2022-07-28T22:21:40.899Z,2.70
2022-07-28T22:25:44.619Z,2.20
2022-07-28T22:29:52.118Z,2.50
2022-07-28T22:31:59.065Z,2.50
2022-07-28T22:34:01.887Z,2.50
2022-07-28T22:36:04.387Z,2.60
2022-07-28T22:38:06.674Z,2.60
2022-07-28T22:40:09.470Z,2.50
2022-07-28T22:42:11.143Z,2.50
2022-07-28T22:44:13.132Z,2.80
2022-07-28T22:46:15.225Z,2.80
2022-07-28T22:48:16.957Z,2.30
2022-07-28T22:50:18.804Z,2.40
2022-07-28T22:52:25.004Z,2.70
2022-07-28T22:54:26.736Z,2.60
2022-07-28T22:58:47.775Z,2.50
2022-07-28T23:00:51.381Z,2.40
2022-07-28T23:02:53.492Z,2.20
2022-07-28T23:04:56.072Z,2.70
2022-07-28T23:06:57.924Z,2.80
2022-07-28T23:08:59.658Z,2.70
2022-07-28T23:11:01.516Z,2.50
2022-07-28T23:13:03.272Z,2.40
2022-07-28T23:15:06.337Z,2.40
2022-07-28T23:17:08.074Z,2.40
2022-07-28T23:19:09.909Z,2.60
2022-07-28T23:21:12.534Z,2.20
2022-07-28T23:23:32.709Z,2.50
2022-07-28T23:25:40.599Z,2.30
2022-07-28T23:27:42.337Z,2.40
2022-07-28T23:29:44.141Z,2.40
2022-07-28T23:31:46.195Z,2.30
2022-07-28T23:33:55.266Z,2.70
2022-07-28T23:35:59.062Z,2.60
2022-07-28T23:38:00.758Z,2.00
2022-07-28T23:40:04.001Z,2.30
2022-07-28T23:42:05.944Z,2.40
2022-07-28T23:44:07.740Z,2.20
2022-07-28T23:46:10.876Z,4.00
2022-07-28T23:48:13.059Z,2.30
2022-07-28T23:50:15.084Z,2.80
2022-07-28T23:52:16.934Z,2.10
2022-07-28T23:54:19.012Z,2.00
2022-07-28T23:58:25.644Z,2.40
